Time;durP1;ratioP1;P1;durP2;ratioP2;P2;SDS_P1;SDS_P2;PMS_P1;PMS_P2;Temp;Humidity;BMP_temperature;BMP_pressure;BME280_temperature;BME280_humidity;BME280_pressure;Samples;Min_cycle;Max_cycle;Signal;HPM_P1;HPM_P2
2021/04/23 00:01:26;;;;;;;0.57;0.57;;;20.60;45.60;;;;;;6316785;28;20024;-62
2021/04/23 00:04:26;;;;;;;1.65;0.77;;;20.60;45.60;;;;;;6316789;28;20327;-64
2021/04/23 00:07:27;;;;;;;1.60;0.75;;;20.60;45.60;;;;;;6317184;28;20036;-62
2021/04/23 00:10:27;;;;;;;1.25;0.73;;;20.60;45.60;;;;;;6316864;28;20028;-62
2021/04/23 00:13:28;;;;;;;0.90;0.80;;;20.60;45.60;;;;;;6317003;28;20549;-62
2021/04/23 00:16:29;;;;;;;1.30;0.75;;;20.60;45.70;;;;;;6317299;28;20032;-62
2021/04/23 00:19:29;;;;;;;1.30;0.80;;;20.60;45.60;;;;;;6317152;28;20024;-63
2021/04/23 00:22:30;;;;;;;0.98;0.80;;;20.60;45.60;;;;;;6316949;28;20032;-63
2021/04/23 00:25:30;;;;;;;1.02;0.63;;;20.60;45.70;;;;;;6316674;28;20013;-63
2021/04/23 00:28:33;;;;;;;1.13;0.60;;;20.60;45.70;;;;;;6317041;28;20032;-62
2021/04/23 00:31:34;;;;;;;1.35;0.80;;;20.60;45.70;;;;;;6316635;28;20106;-63
2021/04/23 00:34:35;;;;;;;1.10;0.63;;;20.60;45.60;;;;;;6316601;28;20032;-62
2021/04/23 00:37:36;;;;;;;1.58;0.73;;;20.60;45.70;;;;;;6316945;28;20035;-62
2021/04/23 00:40:48;;;;;;;0.70;0.60;;;20.60;45.70;;;;;;6315807;28;20036;-62
2021/04/23 00:43:57;;;;;;;1.40;0.80;;;20.60;45.70;;;;;;6316324;28;20115;-62
2021/04/23 00:46:57;;;;;;;1.45;0.60;;;20.60;45.70;;;;;;6316128;28;20028;-63
2021/04/23 00:49:58;;;;;;;1.13;0.70;;;20.60;45.70;;;;;;6315714;28;20198;-62
2021/04/23 00:53:00;;;;;;;0.68;0.57;;;20.60;45.70;;;;;;6316054;28;20042;-62
2021/04/23 00:56:05;;;;;;;1.48;0.80;;;20.60;45.70;;;;;;6315653;28;20133;-62
2021/04/23 00:59:09;;;;;;;1.45;0.82;;;20.60;45.70;;;;;;6315991;28;20109;-62
2021/04/23 01:02:14;;;;;;;1.08;0.70;;;20.60;45.70;;;;;;6316138;28;20093;-63
2021/04/23 01:05:16;;;;;;;1.48;0.77;;;20.60;45.70;;;;;;6316048;28;20035;-62
2021/04/23 01:08:18;;;;;;;1.80;0.75;;;20.60;45.70;;;;;;6316308;28;20184;-62
2021/04/23 01:11:21;;;;;;;1.30;0.68;;;20.60;45.70;;;;;;6315304;28;20051;-63
2021/04/23 01:14:22;;;;;;;0.95;0.63;;;20.60;45.80;;;;;;6315371;28;20046;-64
2021/04/23 01:17:22;;;;;;;0.80;0.45;;;20.60;45.80;;;;;;6315381;28;20376;-64
2021/04/23 01:20:24;;;;;;;1.80;0.70;;;20.60;45.70;;;;;;6315619;28;20032;-62
2021/04/23 01:23:24;;;;;;;0.82;0.70;;;20.60;45.80;;;;;;6315181;28;20084;-62
2021/04/23 01:26:28;;;;;;;1.10;0.50;;;20.60;45.80;;;;;;6315411;28;20020;-64
2021/04/23 01:29:29;;;;;;;1.45;0.70;;;20.60;45.80;;;;;;6315646;28;20024;-62
2021/04/23 01:32:29;;;;;;;1.15;0.60;;;20.60;45.80;;;;;;6315262;28;20040;-64
2021/04/23 01:35:31;;;;;;;1.02;0.60;;;20.60;45.80;;;;;;6315361;28;20509;-62
2021/04/23 01:38:33;;;;;;;1.23;0.80;;;20.60;45.80;;;;;;6315229;28;20027;-62
2021/04/23 01:41:33;;;;;;;2.03;0.80;;;20.60;45.80;;;;;;6315415;28;20023;-63
2021/04/23 01:44:35;;;;;;;0.90;0.70;;;20.60;45.80;;;;;;6315720;28;20466;-62
2021/04/23 01:47:36;;;;;;;1.63;0.85;;;20.60;45.80;;;;;;6315188;28;20387;-62
2021/04/23 01:50:37;;;;;;;1.63;0.70;;;20.60;45.80;;;;;;6314158;28;20044;-62
2021/04/23 01:53:39;;;;;;;1.75;0.80;;;20.60;45.80;;;;;;6315371;28;20541;-62
2021/04/23 01:56:40;;;;;;;0.93;0.52;;;20.60;45.90;;;;;;6315292;28;20103;-62
2021/04/23 01:59:42;;;;;;;0.80;0.77;;;20.60;45.80;;;;;;6314906;28;20530;-62
2021/04/23 02:02:43;;;;;;;0.93;0.75;;;20.60;45.80;;;;;;6315055;28;20023;-62
2021/04/23 02:05:47;;;;;;;1.02;0.80;;;20.60;46.50;;;;;;6314822;28;20486;-62
2021/04/23 02:08:47;;;;;;;1.15;0.75;;;20.60;45.80;;;;;;6314658;28;20036;-63
2021/04/23 02:11:50;;;;;;;1.35;0.85;;;20.60;45.80;;;;;;6314581;28;20040;-64
2021/04/23 02:14:51;;;;;;;0.98;0.70;;;20.60;45.90;;;;;;6315068;28;20021;-63
2021/04/23 02:17:53;;;;;;;1.38;0.70;;;20.60;46.50;;;;;;6315013;28;20058;-63
2021/04/23 02:20:54;;;;;;;1.00;0.60;;;20.60;45.80;;;;;;6314741;28;20039;-62
2021/04/23 02:23:54;;;;;;;0.93;0.70;;;20.60;45.80;;;;;;6314775;28;20020;-63
2021/04/23 02:26:55;;;;;;;1.45;0.90;;;20.60;45.80;;;;;;6314384;28;20016;-62
2021/04/23 02:29:56;;;;;;;1.33;0.75;;;20.60;45.90;;;;;;6314741;28;20032;-64
2021/04/23 02:32:57;;;;;;;0.85;0.75;;;20.60;45.90;;;;;;6314631;28;20032;-62
2021/04/23 02:35:58;;;;;;;1.00;0.68;;;20.60;45.90;;;;;;6319279;28;20077;-63
2021/04/23 02:39:00;;;;;;;0.85;0.60;;;20.60;45.90;;;;;;6319304;28;20213;-64
2021/04/23 02:42:00;;;;;;;0.63;0.63;;;20.60;46.60;;;;;;6318954;28;20048;-63
2021/04/23 02:45:01;;;;;;;1.50;1.05;;;20.60;45.90;;;;;;6318925;28;20107;-62
2021/04/23 02:48:04;;;;;;;1.35;0.70;;;20.60;45.90;;;;;;6319020;28;20368;-62
2021/04/23 02:51:08;;;;;;;1.27;0.80;;;20.60;45.90;;;;;;6318947;28;20463;-64
2021/04/23 02:54:10;;;;;;;0.82;0.70;;;20.50;45.80;;;;;;6318806;28;20039;-64
2021/04/23 02:57:10;;;;;;;1.27;0.68;;;20.60;45.90;;;;;;6319274;28;20108;-62
2021/04/23 03:00:15;;;;;;;0.93;0.55;;;20.60;45.90;;;;;;6318800;28;20025;-62
2021/04/23 03:03:15;;;;;;;1.60;0.80;;;20.60;45.90;;;;;;6317916;28;20027;-62
2021/04/23 03:06:17;;;;;;;0.70;0.60;;;20.60;45.90;;;;;;6318969;28;20030;-62
2021/04/23 03:09:17;;;;;;;1.20;0.70;;;20.60;45.80;;;;;;6318746;28;20036;-63
2021/04/23 03:12:18;;;;;;;0.68;0.68;;;20.60;45.90;;;;;;6317959;28;20402;-62
2021/04/23 03:15:21;;;;;;;1.63;0.80;;;20.60;45.80;;;;;;6318615;28;20036;-62
2021/04/23 03:18:25;;;;;;;1.45;0.95;;;20.60;45.90;;;;;;6318293;28;20020;-62
2021/04/23 03:21:28;;;;;;;1.20;0.82;;;20.60;45.90;;;;;;6318951;28;20055;-62
2021/04/23 03:24:28;;;;;;;0.68;0.50;;;20.60;45.80;;;;;;6318157;28;20060;-63
2021/04/23 03:27:29;;;;;;;0.88;0.60;;;20.60;45.90;;;;;;6318277;28;20394;-62
2021/04/23 03:30:34;;;;;;;1.50;0.82;;;20.60;45.90;;;;;;6318258;28;20371;-63
2021/04/23 03:33:36;;;;;;;1.92;0.80;;;20.60;45.90;;;;;;6318432;28;20032;-62
2021/04/23 03:36:37;;;;;;;1.10;0.80;;;20.60;45.90;;;;;;6318089;28;20027;-62
2021/04/23 03:39:37;;;;;;;2.08;0.80;;;20.60;46.20;;;;;;6317133;28;20024;-64
2021/04/23 03:42:39;;;;;;;0.90;0.70;;;20.60;45.90;;;;;;6317408;28;20109;-63
2021/04/23 03:45:39;;;;;;;1.67;0.90;;;20.60;45.90;;;;;;6316783;28;20034;-63
2021/04/23 03:48:40;;;;;;;1.10;0.70;;;20.50;45.80;;;;;;6317633;28;20387;-62
2021/04/23 03:51:41;;;;;;;1.08;0.65;;;20.60;45.90;;;;;;6317414;28;20016;-62
2021/04/23 03:54:42;;;;;;;1.20;0.80;;;20.50;45.90;;;;;;6318161;28;20050;-62
2021/04/23 03:57:42;;;;;;;1.67;1.05;;;20.60;45.90;;;;;;6318848;28;20031;-63
2021/04/23 04:00:47;;;;;;;1.13;0.80;;;20.50;45.80;;;;;;6342844;28;20338;-62
2021/04/23 04:03:49;;;;;;;2.88;0.80;;;20.60;45.90;;;;;;6333513;28;20028;-62
2021/04/23 04:06:49;;;;;;;1.23;0.70;;;20.60;45.90;;;;;;6315893;28;20028;-62
2021/04/23 04:09:50;;;;;;;2.47;0.95;;;20.50;45.80;;;;;;6316939;28;20110;-62
2021/04/23 04:12:50;;;;;;;1.15;0.93;;;20.50;45.60;;;;;;6317310;28;20066;-62
2021/04/23 04:15:51;;;;;;;2.55;1.00;;;20.50;45.80;;;;;;6316385;28;20524;-63
2021/04/23 04:18:52;;;;;;;0.82;0.60;;;20.60;45.90;;;;;;6316782;28;20048;-63
2021/04/23 04:21:52;;;;;;;0.90;0.65;;;20.60;45.80;;;;;;6316832;28;20416;-64
2021/04/23 04:24:53;;;;;;;1.27;0.60;;;20.50;45.80;;;;;;6316912;28;20127;-62
2021/04/23 04:27:55;;;;;;;1.23;0.90;;;20.60;45.90;;;;;;6316838;28;20084;-63
2021/04/23 04:30:56;;;;;;;1.35;0.82;;;20.50;45.70;;;;;;6316857;28;20032;-63
2021/04/23 04:33:57;;;;;;;1.15;0.82;;;20.50;45.70;;;;;;6315762;28;20517;-63
2021/04/23 04:36:57;;;;;;;2.15;0.80;;;20.60;45.70;;;;;;6316384;28;20109;-62
2021/04/23 04:39:58;;;;;;;1.55;0.93;;;20.50;45.60;;;;;;6316125;28;20474;-63
2021/04/23 04:42:59;;;;;;;1.85;1.13;;;20.60;45.60;;;;;;6316325;28;20024;-62
2021/04/23 04:45:59;;;;;;;2.50;0.75;;;20.60;45.80;;;;;;6316220;28;20096;-62
2021/04/23 04:49:00;;;;;;;1.38;0.93;;;20.60;45.70;;;;;;6315967;28;20494;-63
2021/04/23 04:52:01;;;;;;;1.05;0.70;;;20.60;45.60;;;;;;6315613;28;20502;-62
2021/04/23 04:55:02;;;;;;;1.25;0.80;;;20.60;45.70;;;;;;6316334;28;20543;-63
2021/04/23 04:58:05;;;;;;;1.88;0.80;;;20.60;45.70;;;;;;6315813;28;20034;-62
2021/04/23 05:01:07;;;;;;;1.35;1.00;;;20.60;45.70;;;;;;6314575;28;20016;-63
2021/04/23 05:04:07;;;;;;;1.35;0.80;;;20.60;45.60;;;;;;6317605;28;20017;-62
2021/04/23 05:07:08;;;;;;;2.03;0.90;;;20.60;45.60;;;;;;6341227;28;20024;-62
2021/04/23 05:10:10;;;;;;;1.33;0.95;;;20.60;46.40;;;;;;6332714;28;20153;-62
2021/04/23 05:13:11;;;;;;;3.47;0.90;;;20.60;45.50;;;;;;6315995;28;20282;-63
2021/04/23 05:16:12;;;;;;;0.98;0.82;;;20.60;45.70;;;;;;6316310;28;20058;-62
2021/04/23 05:19:12;;;;;;;1.83;0.80;;;20.60;45.60;;;;;;6315607;28;20481;-62
2021/04/23 05:22:13;;;;;;;1.23;0.73;;;20.60;45.80;;;;;;6315694;28;20020;-62
2021/04/23 05:25:20;;;;;;;2.75;0.93;;;20.60;45.60;;;;;;6315367;28;20075;-63
2021/04/23 05:28:21;;;;;;;2.17;0.98;;;20.60;45.50;;;;;;6315270;28;20305;-63
2021/04/23 05:31:22;;;;;;;1.75;1.00;;;20.60;45.70;;;;;;6315588;28;20028;-63
2021/04/23 05:34:22;;;;;;;2.17;0.80;;;20.60;45.80;;;;;;6315394;28;20040;-62
2021/04/23 05:37:23;;;;;;;1.27;0.77;;;20.60;45.60;;;;;;6315375;28;20025;-62
2021/04/23 05:40:33;;;;;;;1.42;0.80;;;20.60;45.80;;;;;;6315217;28;20024;-62
2021/04/23 05:43:35;;;;;;;1.40;0.90;;;20.60;45.60;;;;;;6305116;28;20056;-62
2021/04/23 05:46:35;;;;;;;1.35;0.70;;;20.60;45.60;;;;;;6297361;28;20032;-64
2021/04/23 05:49:36;;;;;;;1.23;1.00;;;20.60;45.70;;;;;;6302200;28;20486;-63
2021/04/23 05:52:37;;;;;;;1.92;0.90;;;20.60;45.60;;;;;;6297940;28;20574;-63
2021/04/23 05:55:38;;;;;;;0.82;0.60;;;20.60;45.60;;;;;;6326671;28;20032;-63
2021/04/23 05:58:39;;;;;;;2.28;0.77;;;20.60;45.40;;;;;;6314421;28;20028;-64
2021/04/23 06:01:39;;;;;;;1.98;1.00;;;20.60;45.60;;;;;;6302750;28;20024;-63
2021/04/23 06:04:40;;;;;;;1.52;1.00;;;20.60;45.70;;;;;;6310384;28;20016;-62
2021/04/23 06:07:41;;;;;;;3.58;0.82;;;20.60;45.60;;;;;;6316475;28;20036;-63
2021/04/23 06:10:43;;;;;;;1.27;0.88;;;20.60;45.70;;;;;;6307065;28;20047;-64
2021/04/23 06:13:45;;;;;;;3.63;1.00;;;20.60;45.70;;;;;;6320637;28;20126;-63
2021/04/23 06:16:45;;;;;;;1.73;0.88;;;20.60;45.60;;;;;;6321277;28;20043;-62
2021/04/23 06:19:46;;;;;;;0.82;0.77;;;20.60;45.80;;;;;;6321424;28;20032;-63
2021/04/23 06:22:47;;;;;;;1.40;0.90;;;20.60;45.70;;;;;;6308853;28;20150;-63
2021/04/23 06:25:49;;;;;;;1.45;0.70;;;20.60;46.00;;;;;;6301831;28;20028;-62
2021/04/23 06:28:49;;;;;;;2.55;0.90;;;20.60;45.80;;;;;;6321622;28;20051;-63
2021/04/23 06:31:50;;;;;;;9.77;1.20;;;20.70;45.70;;;;;;6320515;28;20093;-63
2021/04/23 06:34:50;;;;;;;1.25;0.75;;;20.70;46.30;;;;;;6320595;28;20232;-62
2021/04/23 06:37:51;;;;;;;2.65;1.20;;;20.70;45.70;;;;;;6320054;28;20382;-62
2021/04/23 06:40:52;;;;;;;1.73;0.90;;;20.70;45.40;;;;;;6297218;28;20494;-62
2021/04/23 06:43:54;;;;;;;1.65;1.10;;;20.70;45.30;;;;;;6320546;28;20032;-62
2021/04/23 06:46:54;;;;;;;2.10;0.80;;;20.70;45.20;;;;;;6319943;28;20031;-62
2021/04/23 06:49:55;;;;;;;2.35;1.00;;;20.80;45.30;;;;;;6320350;28;20056;-62
2021/04/23 06:52:57;;;;;;;2.55;0.95;;;20.70;45.20;;;;;;6318767;28;20036;-62
2021/04/23 06:56:00;;;;;;;2.42;1.27;;;20.70;45.10;;;;;;6319824;28;20424;-62
2021/04/23 06:59:00;;;;;;;1.75;0.95;;;20.80;45.10;;;;;;6319334;28;20020;-63
2021/04/23 07:02:01;;;;;;;3.05;1.20;;;20.80;45.10;;;;;;6320046;28;20497;-63
2021/04/23 07:05:03;;;;;;;2.28;0.90;;;20.80;45.30;;;;;;6319854;28;20095;-62
2021/04/23 07:08:04;;;;;;;3.33;0.90;;;20.80;45.60;;;;;;6319291;28;20028;-62
2021/04/23 07:11:05;;;;;;;2.38;1.00;;;20.80;45.70;;;;;;6308192;28;20029;-62
2021/04/23 07:14:06;;;;;;;3.90;1.00;;;20.80;45.80;;;;;;6340159;28;20499;-62
2021/04/23 07:17:10;;;;;;;3.00;1.00;;;20.70;45.60;;;;;;6337194;28;20118;-62
2021/04/23 07:20:12;;;;;;;3.13;0.93;;;20.70;45.60;;;;;;6319586;28;20032;-62
2021/04/23 07:23:13;;;;;;;4.97;1.05;;;20.70;45.80;;;;;;6318872;28;20070;-62
2021/04/23 07:26:14;;;;;;;3.42;1.10;;;20.70;45.70;;;;;;6319798;28;20036;-62
2021/04/23 07:29:14;;;;;;;2.58;1.40;;;20.70;45.80;;;;;;6319441;28;20027;-63
2021/04/23 07:32:15;;;;;;;2.55;0.90;;;20.70;45.70;;;;;;6318901;28;20036;-62
2021/04/23 07:35:16;;;;;;;2.67;1.00;;;20.70;45.60;;;;;;6318452;28;20121;-62
2021/04/23 07:38:16;;;;;;;1.42;1.05;;;20.70;45.70;;;;;;6315603;28;20039;-62
2021/04/23 07:41:17;;;;;;;2.10;1.10;;;20.70;45.70;;;;;;6314253;28;20117;-62
2021/04/23 07:44:17;;;;;;;2.97;1.10;;;20.70;45.90;;;;;;6318992;28;20483;-62
2021/04/23 07:47:18;;;;;;;3.05;1.10;;;20.70;46.00;;;;;;6318871;28;20027;-62
2021/04/23 07:50:22;;;;;;;2.22;0.85;;;20.70;45.70;;;;;;6318579;28;20044;-62
2021/04/23 07:53:22;;;;;;;2.20;0.82;;;20.70;45.90;;;;;;6317038;28;20508;-63
2021/04/23 07:56:23;;;;;;;2.60;0.80;;;20.70;46.00;;;;;;6318855;28;20036;-62
2021/04/23 07:59:23;;;;;;;1.63;1.10;;;20.70;46.00;;;;;;6317687;28;20402;-62
2021/04/23 08:02:24;;;;;;;2.13;1.10;;;20.70;46.00;;;;;;6318326;28;20024;-62
2021/04/23 08:05:25;;;;;;;4.35;1.02;;;20.70;46.00;;;;;;6318127;28;20062;-62
2021/04/23 08:08:26;;;;;;;2.45;1.10;;;20.70;46.00;;;;;;6318146;28;20494;-62
2021/04/23 08:11:26;;;;;;;5.68;1.20;;;20.70;46.00;;;;;;6318225;28;20040;-62
2021/04/23 08:14:27;;;;;;;1.63;0.93;;;20.70;46.00;;;;;;6316530;28;20034;-62
2021/04/23 08:17:28;;;;;;;7.25;1.23;;;20.70;46.10;;;;;;6318710;28;20032;-62
2021/04/23 08:20:29;;;;;;;4.13;1.33;;;20.70;46.10;;;;;;6317435;28;20427;-62
2021/04/23 08:23:29;;;;;;;4.32;1.02;;;20.70;45.80;;;;;;6317799;28;20024;-63
2021/04/23 08:26:30;;;;;;;6.30;1.17;;;20.70;45.10;;;;;;6317516;28;20036;-62
2021/04/23 08:29:30;;;;;;;5.20;1.30;;;20.70;46.00;;;;;;6316594;28;20135;-62
2021/04/23 08:32:31;;;;;;;6.68;1.38;;;20.70;46.00;;;;;;6315878;28;20040;-62
2021/04/23 08:35:31;;;;;;;3.08;1.10;;;20.70;46.00;;;;;;6295611;28;20405;-62
2021/04/23 08:38:32;;;;;;;5.20;1.17;;;20.70;46.00;;;;;;6327796;28;20028;-62
2021/04/23 08:41:34;;;;;;;4.13;1.20;;;20.70;46.00;;;;;;6317696;28;20043;-63
2021/04/23 08:44:35;;;;;;;2.03;0.93;;;20.70;46.00;;;;;;6316956;28;20019;-62
2021/04/23 08:47:38;;;;;;;3.58;1.33;;;20.70;46.00;;;;;;6317291;28;20028;-63
2021/04/23 08:50:39;;;;;;;2.65;1.13;;;20.70;46.00;;;;;;6315749;28;20252;-62
2021/04/23 08:53:40;;;;;;;3.85;1.27;;;20.70;46.00;;;;;;6318149;28;20097;-62
2021/04/23 08:56:41;;;;;;;4.63;1.10;;;20.70;46.00;;;;;;6301877;28;20020;-62
2021/04/23 08:59:41;;;;;;;2.78;1.27;;;20.70;46.00;;;;;;6306247;28;20024;-63
2021/04/23 09:02:43;;;;;;;5.90;1.50;;;20.70;45.90;;;;;;6317044;28;20043;-62
2021/04/23 09:06:10;;;;;;;3.28;1.30;;;20.80;45.80;;;;;;6317251;28;20024;-63
2021/04/23 09:09:13;;;;;;;7.55;1.45;;;20.90;45.20;;;;;;6317465;28;20438;-62
2021/04/23 09:12:26;;;;;;;4.70;1.42;;;20.90;44.90;;;;;;6317137;28;20431;-63
2021/04/23 09:15:27;;;;;;;3.67;1.27;;;21.00;45.40;;;;;;6317318;28;20482;-62
2021/04/23 09:18:28;;;;;;;3.00;1.30;;;21.00;45.40;;;;;;6315487;28;20081;-62
2021/04/23 09:21:29;;;;;;;2.03;1.13;;;21.00;45.00;;;;;;6328907;28;20020;-62
2021/04/23 09:24:35;;;;;;;2.47;1.20;;;21.00;44.90;;;;;;6318393;28;20059;-62
2021/04/23 09:27:38;;;;;;;3.42;1.40;;;21.00;45.30;;;;;;6317583;28;20020;-62
2021/04/23 09:30:39;;;;;;;2.58;1.27;;;21.00;45.30;;;;;;6310022;28;20032;-63
2021/04/23 09:33:49;;;;;;;3.63;1.65;;;21.10;45.10;;;;;;6313694;28;20041;-62
2021/04/23 09:36:51;;;;;;;4.45;1.42;;;21.10;45.70;;;;;;6294493;28;20107;-63
2021/04/23 09:39:52;;;;;;;4.68;1.20;;;21.10;45.10;;;;;;6309556;28;20065;-62
2021/04/23 09:42:56;;;;;;;2.13;1.20;;;21.10;45.10;;;;;;6319090;28;20032;-63
2021/04/23 09:45:56;;;;;;;3.92;1.27;;;21.10;45.00;;;;;;6321082;28;20024;-63
2021/04/23 09:49:24;;;;;;;3.25;1.45;;;21.20;44.90;;;;;;6311256;28;20197;-63
2021/04/23 09:52:26;;;;;;;2.72;1.33;;;21.20;45.00;;;;;;6321193;28;20036;-63
2021/04/23 09:55:30;;;;;;;3.03;1.30;;;21.20;45.00;;;;;;6323218;28;20451;-63
2021/04/23 09:58:31;;;;;;;4.93;1.20;;;21.20;45.20;;;;;;6322910;28;20038;-62
2021/04/23 10:01:59;;;;;;;3.55;1.20;;;21.20;44.90;;;;;;6323049;28;20069;-64
2021/04/23 10:05:00;;;;;;;8.40;1.42;;;21.30;44.90;;;;;;6318715;28;20559;-63
2021/04/23 10:08:04;;;;;;;2.70;1.27;;;21.30;45.00;;;;;;6323463;28;20024;-63
2021/04/23 10:11:05;;;;;;;4.97;1.50;;;21.30;45.10;;;;;;6323147;28;20077;-63
2021/04/23 10:14:12;;;;;;;2.83;1.30;;;21.30;45.00;;;;;;6322491;28;20788;-63
2021/04/23 10:17:22;;;;;;;3.83;1.75;;;21.30;45.00;;;;;;6322969;28;20055;-63
2021/04/23 10:20:24;;;;;;;9.88;4.32;;;21.30;45.10;;;;;;6322777;28;20278;-65
2021/04/23 10:23:25;;;;;;;17.83;7.65;;;21.30;45.20;;;;;;6321795;28;20024;-63
2021/04/23 10:26:26;;;;;;;25.92;10.25;;;21.30;45.30;;;;;;6322643;28;20525;-62
2021/04/23 10:29:28;;;;;;;34.08;12.77;;;21.30;45.50;;;;;;6307285;28;20511;-64
2021/04/23 10:32:28;;;;;;;33.55;13.60;;;21.30;45.60;;;;;;6336420;28;20035;-64
2021/04/23 10:35:30;;;;;;;41.15;15.23;;;21.30;45.70;;;;;;6339823;28;20024;-64
2021/04/23 10:38:34;;;;;;;48.10;17.67;;;21.30;46.00;;;;;;6304471;28;20030;-63
2021/04/23 10:41:36;;;;;;;42.45;15.05;;;21.30;46.50;;;;;;6321575;28;20059;-64
2021/04/23 10:44:58;;;;;;;41.03;15.27;;;21.30;46.10;;;;;;6321358;28;20501;-64
2021/04/23 10:48:01;;;;;;;36.75;13.20;;;21.30;46.10;;;;;;6319379;28;20034;-64
2021/04/23 10:51:18;;;;;;;34.10;11.43;;;21.30;46.10;;;;;;6321037;28;20034;-64
2021/04/23 10:54:19;;;;;;;30.83;11.75;;;21.40;46.70;;;;;;6298125;28;20036;-63
2021/04/23 10:57:20;;;;;;;25.48;10.40;;;21.40;45.90;;;;;;6317748;28;20058;-63
2021/04/23 11:00:41;;;;;;;23.80;9.80;;;21.40;45.80;;;;;;6319818;28;20446;-63
2021/04/23 11:03:44;;;;;;;26.50;9.35;;;21.40;46.40;;;;;;6320777;28;20107;-63
2021/04/23 11:07:03;;;;;;;20.63;9.02;;;21.40;45.80;;;;;;6320928;28;20081;-63
2021/04/23 11:10:05;;;;;;;18.08;8.27;;;21.40;45.50;;;;;;6321344;28;20081;-64
2021/04/23 11:13:25;;;;;;;21.48;8.95;;;21.40;45.50;;;;;;6316390;28;20101;-64
2021/04/23 11:16:31;;;;;;;19.30;8.40;;;21.40;45.40;;;;;;6321080;28;20024;-63
2021/04/23 11:19:33;;;;;;;15.75;6.85;;;21.40;45.40;;;;;;6303785;28;20037;-63
2021/04/23 11:22:34;;;;;;;16.88;7.40;;;21.40;45.30;;;;;;6305045;28;20420;-63
2021/04/23 11:25:55;;;;;;;14.57;6.68;;;21.40;45.30;;;;;;6319199;28;20081;-63
2021/04/23 11:29:12;;;;;;;17.30;6.45;;;21.40;45.30;;;;;;6313037;28;20174;-64
2021/04/23 11:32:22;;;;;;;15.05;6.57;;;21.40;45.30;;;;;;6316491;28;20071;-63
2021/04/23 11:35:25;;;;;;;13.32;5.97;;;21.50;45.30;;;;;;6308609;28;20490;-63
2021/04/23 11:38:55;;;;;;;10.15;5.15;;;21.40;45.20;;;;;;6315005;28;20051;-63
2021/04/23 11:42:18;;;;;;;10.98;5.07;;;21.40;45.20;;;;;;6317258;28;20031;-64
2021/04/23 11:45:31;;;;;;;11.02;5.38;;;21.40;45.20;;;;;;6305228;28;21064;-62
2021/04/23 11:48:32;;;;;;;10.90;5.13;;;21.40;45.10;;;;;;6323869;28;20049;-63
2021/04/23 11:51:33;;;;;;;9.23;4.40;;;21.40;45.20;;;;;;6315806;28;20111;-63
2021/04/23 11:54:39;;;;;;;7.95;4.05;;;21.40;45.10;;;;;;6317202;28;20375;-64
2021/04/23 11:57:40;;;;;;;10.82;4.40;;;21.40;45.10;;;;;;6317455;28;20554;-63
2021/04/23 12:00:44;;;;;;;9.20;4.07;;;21.50;45.30;;;;;;6319214;28;20024;-63
2021/04/23 12:03:46;;;;;;;8.95;4.18;;;21.50;45.40;;;;;;6316885;28;20028;-64
2021/04/23 12:06:54;;;;;;;7.03;3.45;;;21.50;45.20;;;;;;6319318;28;20024;-64
2021/04/23 12:10:12;;;;;;;9.18;3.88;;;21.50;44.90;;;;;;6319968;28;20028;-63
2021/04/23 12:13:19;;;;;;;5.90;3.15;;;21.50;45.10;;;;;;6319615;28;20324;-64
2021/04/23 12:16:19;;;;;;;7.75;3.80;;;21.50;45.10;;;;;;6317401;28;20057;-63
2021/04/23 12:19:29;;;;;;;8.02;3.47;;;21.50;45.10;;;;;;6308098;28;20028;-64
2021/04/23 12:22:40;;;;;;;5.72;3.25;;;21.50;45.00;;;;;;6319146;28;20315;-64
2021/04/23 12:25:55;;;;;;;5.25;2.95;;;21.50;45.10;;;;;;6318627;28;20028;-63
2021/04/23 12:29:18;;;;;;;5.22;3.17;;;21.50;45.00;;;;;;6317899;28;20032;-63
2021/04/23 12:32:18;;;;;;;6.85;3.17;;;21.50;45.10;;;;;;6295544;28;20061;-63
2021/04/23 12:35:44;;;;;;;4.95;2.90;;;21.50;45.10;;;;;;6305744;28;20034;-64
2021/04/23 12:38:50;;;;;;;5.10;2.38;;;21.50;45.00;;;;;;6306927;28;20023;-63
2021/04/23 12:41:56;;;;;;;5.20;2.65;;;21.50;45.20;;;;;;6316432;28;20438;-63
2021/04/23 12:44:59;;;;;;;5.03;2.47;;;21.50;45.10;;;;;;6317649;28;20019;-65
2021/04/23 12:48:03;;;;;;;3.08;2.00;;;21.50;45.20;;;;;;6318617;28;20183;-64
2021/04/23 12:51:06;;;;;;;6.90;2.42;;;21.50;45.10;;;;;;6308011;28;20035;-63
2021/04/23 12:54:08;;;;;;;4.13;2.35;;;21.50;45.20;;;;;;6296010;28;20055;-63
2021/04/23 12:57:17;;;;;;;5.90;2.50;;;21.50;45.20;;;;;;6316713;28;20494;-65
2021/04/23 13:00:22;;;;;;;5.38;2.20;;;21.50;45.30;;;;;;6315798;28;20044;-64
2021/04/23 13:03:25;;;;;;;5.80;2.20;;;21.40;45.00;;;;;;6317855;28;20024;-63
2021/04/23 13:06:25;;;;;;;5.40;1.67;;;21.40;45.30;;;;;;6304502;28;20043;-63
2021/04/23 13:09:30;;;;;;;3.85;2.15;;;21.40;45.10;;;;;;6307395;28;20459;-63
2021/04/23 13:12:42;;;;;;;4.82;2.13;;;21.50;45.60;;;;;;6316664;28;20036;-64
2021/04/23 13:15:48;;;;;;;3.40;1.70;;;21.50;45.30;;;;;;6297839;28;20043;-63
2021/04/23 13:18:49;;;;;;;4.28;1.75;;;21.50;45.30;;;;;;6316181;28;20169;-63
2021/04/23 13:21:50;;;;;;;4.93;2.33;;;21.60;45.20;;;;;;6316635;28;20073;-62
2021/04/23 13:25:11;;;;;;;7.88;2.30;;;21.60;45.20;;;;;;6314160;28;20035;-64
2021/04/23 13:28:17;;;;;;;3.10;1.70;;;21.60;44.80;;;;;;6314336;28;20111;-64
2021/04/23 13:31:18;;;;;;;2.95;1.55;;;21.60;45.00;;;;;;6316129;28;20027;-65
2021/04/23 13:34:19;;;;;;;2.60;1.67;;;21.60;45.00;;;;;;6316558;28;20085;-64
2021/04/23 13:37:34;;;;;;;4.75;1.88;;;21.60;45.00;;;;;;6316667;28;20024;-64
2021/04/23 13:40:34;;;;;;;3.70;1.73;;;21.60;44.90;;;;;;6315323;28;20494;-64
2021/04/23 13:43:36;;;;;;;2.92;1.48;;;21.60;45.00;;;;;;6320281;28;20053;-64
2021/04/23 13:46:38;;;;;;;2.78;1.70;;;21.60;45.00;;;;;;6316862;28;20031;-64
2021/04/23 13:49:39;;;;;;;3.10;1.55;;;21.60;45.00;;;;;;6309322;28;20090;-64
2021/04/23 13:52:42;;;;;;;2.25;1.52;;;21.60;45.00;;;;;;6316831;28;20040;-64
2021/04/23 13:56:06;;;;;;;3.85;1.70;;;21.60;45.10;;;;;;6308306;28;20031;-64
2021/04/23 13:59:10;;;;;;;2.67;1.80;;;21.60;45.10;;;;;;6305809;28;20031;-64
2021/04/23 14:02:21;;;;;;;4.55;1.63;;;21.60;45.20;;;;;;6309157;28;20016;-62
2021/04/23 14:05:22;;;;;;;6.00;1.92;;;21.60;45.20;;;;;;6307797;28;20034;-62
2021/04/23 14:08:23;;;;;;;2.47;1.48;;;21.60;45.20;;;;;;6305481;28;20554;-59
2021/04/23 14:11:23;;;;;;;5.57;1.50;;;21.60;45.20;;;;;;6300447;28;20024;-63
2021/04/23 14:14:29;;;;;;;2.30;1.40;;;21.60;45.20;;;;;;6314167;28;20032;-63
2021/04/23 14:17:31;;;;;;;2.47;1.50;;;21.60;45.30;;;;;;6303653;28;20466;-63
2021/04/23 14:20:32;;;;;;;3.28;1.48;;;21.60;45.20;;;;;;6311980;28;20024;-64
2021/04/23 14:23:33;;;;;;;3.47;1.55;;;21.60;45.20;;;;;;6315874;28;20027;-63
2021/04/23 14:26:33;;;;;;;2.00;1.35;;;21.60;45.20;;;;;;6316698;28;20098;-64
2021/04/23 14:29:34;;;;;;;2.42;1.55;;;21.60;45.20;;;;;;6317704;28;20043;-63
2021/04/23 14:32:34;;;;;;;2.70;1.65;;;21.60;45.10;;;;;;6320430;28;20070;-63
2021/04/23 14:35:35;;;;;;;2.17;1.25;;;21.60;45.10;;;;;;6319749;28;20131;-63
2021/04/23 14:38:36;;;;;;;1.95;1.35;;;21.60;45.20;;;;;;6321538;28;20119;-63
2021/04/23 14:41:37;;;;;;;2.30;1.20;;;21.60;45.20;;;;;;6312513;28;20109;-64
2021/04/23 14:44:38;;;;;;;2.95;1.13;;;21.60;45.20;;;;;;6315867;28;20043;-63
2021/04/23 14:47:38;;;;;;;2.50;1.40;;;21.60;45.10;;;;;;6321065;28;20024;-63
2021/04/23 14:50:39;;;;;;;2.47;1.40;;;21.60;45.10;;;;;;6320746;28;20052;-63
2021/04/23 14:53:40;;;;;;;2.58;1.20;;;21.60;45.10;;;;;;6320653;28;20032;-64
2021/04/23 14:56:40;;;;;;;2.10;1.02;;;21.60;45.10;;;;;;6318508;28;20337;-62
2021/04/23 14:59:41;;;;;;;2.95;1.30;;;21.60;44.90;;;;;;6322930;28;20048;-63
2021/04/23 15:02:41;;;;;;;3.28;1.38;;;21.60;45.10;;;;;;6303061;28;20029;-63
2021/04/23 15:05:43;;;;;;;2.22;1.48;;;21.60;45.10;;;;;;6310625;28;20106;-64
2021/04/23 15:08:43;;;;;;;2.80;1.60;;;21.60;45.00;;;;;;6313377;28;20474;-63
2021/04/23 15:11:44;;;;;;;2.72;1.50;;;21.60;45.00;;;;;;6305442;28;20027;-64
2021/04/23 15:14:45;;;;;;;1.35;1.00;;;21.60;45.00;;;;;;6316383;28;20032;-63
2021/04/23 15:17:46;;;;;;;2.40;1.35;;;21.60;45.10;;;;;;6320373;28;20081;-64
2021/04/23 15:20:49;;;;;;;3.38;1.15;;;21.60;45.00;;;;;;6316067;28;20072;-63
2021/04/23 15:23:50;;;;;;;1.52;1.08;;;21.60;45.00;;;;;;6320762;28;20116;-63
2021/04/23 15:26:50;;;;;;;2.28;1.35;;;21.60;45.00;;;;;;6320335;28;20016;-64
2021/04/23 15:29:51;;;;;;;1.50;1.00;;;21.60;45.10;;;;;;6302961;28;20100;-64
2021/04/23 15:32:53;;;;;;;3.15;1.30;;;21.60;45.00;;;;;;6319243;28;20019;-64
2021/04/23 15:35:55;;;;;;;1.65;1.10;;;21.60;45.00;;;;;;6319533;28;20031;-64
2021/04/23 15:38:55;;;;;;;3.60;1.30;;;21.60;44.80;;;;;;6326764;28;20020;-65
2021/04/23 15:41:56;;;;;;;5.97;1.23;;;21.60;45.00;;;;;;6318893;28;20035;-64
2021/04/23 15:44:58;;;;;;;8.50;1.33;;;21.60;45.10;;;;;;6318028;28;20546;-65
2021/04/23 15:48:00;;;;;;;3.78;1.17;;;21.60;45.10;;;;;;6317193;28;20020;-64
2021/04/23 15:51:02;;;;;;;2.60;1.10;;;21.60;45.00;;;;;;6328162;28;20031;-65